Aérodrome :
LOGIN :

S'inscrire | Disclaimer

   EN    FR    IT 

 










Légende :    VFR   VFR Marginal   IFR   IFR Intensif   IFR Très Intensif
Visi : 
Plafond : 
>= 8 km
>= 3000ft
5 à 8 km
1000 à 3000 ft
1500m à 5 km
500 à 1000 ft
800 à 1500m
200 à 500 ft
< 800m
< 200 ft
Symboles :   Orages  Brouillard  Fortes neiges  Fortes précipitations  Vent > 20 kt
SIGMETs :   Divers  Orages  Givrage  Turbulence  Onde Orograph.  Cendres Volcan.






- Altitude de l'aérodrome : 147 ft
- Code IATA : DUS


EDDL - Düsseldorf Int.

DERNIER METAR :
  • 281220Z 17005KT 130V210 9999 FEW025 17/11 Q1022 NOSIG

METARs EXPIRÉS :
  • 281150Z 17008KT 9999 FEW025 17/11 Q1022 NOSIG
  • 281120Z 18008KT 9999 FEW025 17/11 Q1023 NOSIG
  • 281050Z 17006KT 140V220 9999 FEW020 17/11 Q1023 NOSIG
  • 281020Z 17005KT 140V220 9999 FEW016 17/12 Q1023 NOSIG
  • 280950Z 17007KT 9999 FEW016 15/11 Q1023 NOSIG

TAF TAF EDDL
Valide du 28 à 12h jusqu'au 29 à 18h UTC


281100Z 2812/2918 20006KT 9999 FEW030
BECMG 2814/2817 14006KT
BECMG 2902/2905 16011KT
TEMPO 2907/2910 RA
BECMG 2908/2911 23015G25KT
TEMPO 2910/2918 SHRA BKN025CB
PROB30
TEMPO 2911/2917 27020G35KT 4500 TSRA



MET'MAP, la Météo Aéronautique d'un coup d'oeil ! - Copyright ORBIFLY Décembre 2007 - Disclaimer

ORBIFLY MET'MAP TEAM :

Programmation & Développement : Alexandra Zaïnal
Sur une idée originale de : Baudouin d'Aumeries
Assistance à la programmation : Marc-Olivier Méhu
Soutien technique & logistique : Manuel Goepfert

Contact : metmap@orbifly.com




SOURCES & CREDITS :

   NOAA